sensor_id;sensor_type;location;lat;lon;timestamp;temperature;humidity
21216;DHT22;10765;50.954;5.322;2023-05-13T00:02:00;12.20;1.00
21216;DHT22;10765;50.954;5.322;2023-05-13T00:04:27;12.20;99.90
21216;DHT22;10765;50.954;5.322;2023-05-13T00:06:54;12.10;99.90
21216;DHT22;10765;50.954;5.322;2023-05-13T00:09:21;12.00;99.90
21216;DHT22;10765;50.954;5.322;2023-05-13T00:11:48;12.00;99.90
21216;DHT22;10765;50.954;5.322;2023-05-13T00:14:15;12.00;1.00
21216;DHT22;10765;50.954;5.322;2023-05-13T00:16:43;12.00;99.90
21216;DHT22;10765;50.954;5.322;2023-05-13T00:19:10;11.90;1.00
21216;DHT22;10765;50.954;5.322;2023-05-13T00:21:37;11.80;1.00
21216;DHT22;10765;50.954;5.322;2023-05-13T00:24:06;11.80;99.90
21216;DHT22;10765;50.954;5.322;2023-05-13T00:26:32;11.80;1.00
21216;DHT22;10765;50.954;5.322;2023-05-13T00:28:59;11.80;1.00
21216;DHT22;10765;50.954;5.322;2023-05-13T00:31:26;11.80;1.00
21216;DHT22;10765;50.954;5.322;2023-05-13T00:33:54;11.70;99.90
21216;DHT22;10765;50.954;5.322;2023-05-13T00:36:21;11.70;1.00
21216;DHT22;10765;50.954;5.322;2023-05-13T00:38:48;11.60;1.00
21216;DHT22;10765;50.954;5.322;2023-05-13T00:41:16;11.50;99.90
21216;DHT22;10765;50.954;5.322;2023-05-13T00:43:44;11.50;99.90
21216;DHT22;10765;50.954;5.322;2023-05-13T00:46:11;11.30;1.00
21216;DHT22;10765;50.954;5.322;2023-05-13T00:48:38;11.20;1.00
21216;DHT22;10765;50.954;5.322;2023-05-13T00:51:06;11.20;1.00
21216;DHT22;10765;50.954;5.322;2023-05-13T00:53:33;11.20;99.90
21216;DHT22;10765;50.954;5.322;2023-05-13T00:56:00;11.30;99.90
21216;DHT22;10765;50.954;5.322;2023-05-13T00:58:27;11.30;99.90
21216;DHT22;10765;50.954;5.322;2023-05-13T01:01:01;11.40;99.90
21216;DHT22;10765;50.954;5.322;2023-05-13T01:03:35;11.40;99.90
21216;DHT22;10765;50.954;5.322;2023-05-13T01:06:10;11.30;99.90
21216;DHT22;10765;50.954;5.322;2023-05-13T01:08:44;11.30;99.90
21216;DHT22;10765;50.954;5.322;2023-05-13T01:11:14;11.20;99.90
21216;DHT22;10765;50.954;5.322;2023-05-13T01:13:47;11.10;1.00
21216;DHT22;10765;50.954;5.322;2023-05-13T01:16:22;11.10;10.00
21216;DHT22;10765;50.954;5.322;2023-05-13T01:18:54;11.00;99.90
21216;DHT22;10765;50.954;5.322;2023-05-13T01:21:25;11.00;1.00
21216;DHT22;10765;50.954;5.322;2023-05-13T01:23:52;11.00;99.90
21216;DHT22;10765;50.954;5.322;2023-05-13T01:26:21;10.90;99.90
21216;DHT22;10765;50.954;5.322;2023-05-13T01:28:51;10.90;1.00
21216;DHT22;10765;50.954;5.322;2023-05-13T01:31:18;10.80;99.90
21216;DHT22;10765;50.954;5.322;2023-05-13T01:33:46;10.80;99.90
21216;DHT22;10765;50.954;5.322;2023-05-13T01:36:14;10.70;1.00
21216;DHT22;10765;50.954;5.322;2023-05-13T01:38:43;10.70;99.90
21216;DHT22;10765;50.954;5.322;2023-05-13T01:41:10;10.60;1.00
21216;DHT22;10765;50.954;5.322;2023-05-13T01:43:37;10.70;99.90
21216;DHT22;10765;50.954;5.322;2023-05-13T01:46:10;10.60;1.00
21216;DHT22;10765;50.954;5.322;2023-05-13T01:48:37;10.60;99.90
21216;DHT22;10765;50.954;5.322;2023-05-13T01:51:04;10.60;99.90
21216;DHT22;10765;50.954;5.322;2023-05-13T01:53:31;10.60;99.90
21216;DHT22;10765;50.954;5.322;2023-05-13T01:55:59;10.60;99.90
21216;DHT22;10765;50.954;5.322;2023-05-13T01:58:26;10.50;99.90
21216;DHT22;10765;50.954;5.322;2023-05-13T02:00:53;10.50;1.00
21216;DHT22;10765;50.954;5.322;2023-05-13T02:03:20;10.40;1.00
21216;DHT22;10765;50.954;5.322;2023-05-13T02:05:47;10.40;99.90
21216;DHT22;10765;50.954;5.322;2023-05-13T02:08:14;10.40;99.90
21216;DHT22;10765;50.954;5.322;2023-05-13T02:10:41;10.50;99.90
21216;DHT22;10765;50.954;5.322;2023-05-13T02:13:09;10.50;99.90
21216;DHT22;10765;50.954;5.322;2023-05-13T02:15:36;10.40;1.00
21216;DHT22;10765;50.954;5.322;2023-05-13T02:18:03;10.40;99.90
21216;DHT22;10765;50.954;5.322;2023-05-13T02:20:30;10.40;82.30
21216;DHT22;10765;50.954;5.322;2023-05-13T02:22:57;10.30;99.90
21216;DHT22;10765;50.954;5.322;2023-05-13T02:25:24;10.30;99.90
21216;DHT22;10765;50.954;5.322;2023-05-13T02:27:51;10.20;99.90
21216;DHT22;10765;50.954;5.322;2023-05-13T02:30:19;10.20;99.90
21216;DHT22;10765;50.954;5.322;2023-05-13T02:32:46;10.20;1.00
21216;DHT22;10765;50.954;5.322;2023-05-13T02:35:13;10.20;99.90
21216;DHT22;10765;50.954;5.322;2023-05-13T02:37:40;10.10;1.00
21216;DHT22;10765;50.954;5.322;2023-05-13T02:40:08;10.10;1.00
21216;DHT22;10765;50.954;5.322;2023-05-13T02:42:37;10.10;1.00
21216;DHT22;10765;50.954;5.322;2023-05-13T02:45:05;10.10;1.00
21216;DHT22;10765;50.954;5.322;2023-05-13T02:47:33;10.10;1.00
21216;DHT22;10765;50.954;5.322;2023-05-13T02:50:00;9.90;99.90
21216;DHT22;10765;50.954;5.322;2023-05-13T02:52:27;9.90;1.00
21216;DHT22;10765;50.954;5.322;2023-05-13T02:54:54;9.80;99.90
21216;DHT22;10765;50.954;5.322;2023-05-13T02:57:23;9.90;99.90
21216;DHT22;10765;50.954;5.322;2023-05-13T02:59:50;9.70;1.00
21216;DHT22;10765;50.954;5.322;2023-05-13T03:02:17;9.70;99.90
21216;DHT22;10765;50.954;5.322;2023-05-13T03:04:45;9.60;99.90
21216;DHT22;10765;50.954;5.322;2023-05-13T03:07:12;9.70;1.00
21216;DHT22;10765;50.954;5.322;2023-05-13T03:09:39;9.60;99.90
21216;DHT22;10765;50.954;5.322;2023-05-13T03:12:07;9.70;1.00
21216;DHT22;10765;50.954;5.322;2023-05-13T03:14:34;9.70;99.90
21216;DHT22;10765;50.954;5.322;2023-05-13T03:17:01;9.70;1.00
21216;DHT22;10765;50.954;5.322;2023-05-13T03:19:28;9.70;1.00
21216;DHT22;10765;50.954;5.322;2023-05-13T03:21:56;9.60;99.90
21216;DHT22;10765;50.954;5.322;2023-05-13T03:24:23;9.60;99.90
21216;DHT22;10765;50.954;5.322;2023-05-13T03:26:50;9.50;99.90
21216;DHT22;10765;50.954;5.322;2023-05-13T03:29:17;9.50;99.90
21216;DHT22;10765;50.954;5.322;2023-05-13T03:31:44;9.50;99.90
21216;DHT22;10765;50.954;5.322;2023-05-13T03:34:11;9.50;99.90
21216;DHT22;10765;50.954;5.322;2023-05-13T03:36:38;9.50;99.90
21216;DHT22;10765;50.954;5.322;2023-05-13T03:39:06;9.50;99.90
21216;DHT22;10765;50.954;5.322;2023-05-13T03:41:33;9.50;1.00
21216;DHT22;10765;50.954;5.322;2023-05-13T03:44:01;9.50;99.90
21216;DHT22;10765;50.954;5.322;2023-05-13T03:46:27;9.50;1.00
21216;DHT22;10765;50.954;5.322;2023-05-13T03:48:54;9.40;1.00
21216;DHT22;10765;50.954;5.322;2023-05-13T03:51:21;9.40;1.00
21216;DHT22;10765;50.954;5.322;2023-05-13T03:53:48;9.30;1.00
21216;DHT22;10765;50.954;5.322;2023-05-13T03:56:17;9.30;1.00
21216;DHT22;10765;50.954;5.322;2023-05-13T03:58:43;9.20;1.00
21216;DHT22;10765;50.954;5.322;2023-05-13T04:01:10;9.20;96.80
21216;DHT22;10765;50.954;5.322;2023-05-13T04:03:37;9.20;1.00
21216;DHT22;10765;50.954;5.322;2023-05-13T04:06:06;9.20;1.00
21216;DHT22;10765;50.954;5.322;2023-05-13T04:08:33;9.10;1.00
21216;DHT22;10765;50.954;5.322;2023-05-13T04:10:59;9.20;1.00
21216;DHT22;10765;50.954;5.322;2023-05-13T04:13:28;9.20;1.00
21216;DHT22;10765;50.954;5.322;2023-05-13T04:15:54;9.20;1.00
21216;DHT22;10765;50.954;5.322;2023-05-13T04:18:22;9.30;1.00
21216;DHT22;10765;50.954;5.322;2023-05-13T04:20:49;9.30;1.00
21216;DHT22;10765;50.954;5.322;2023-05-13T04:23:16;9.30;99.90
21216;DHT22;10765;50.954;5.322;2023-05-13T04:25:48;9.30;63.80
21216;DHT22;10765;50.954;5.322;2023-05-13T04:28:15;9.30;1.00
21216;DHT22;10765;50.954;5.322;2023-05-13T04:30:43;9.40;99.90
21216;DHT22;10765;50.954;5.322;2023-05-13T04:33:10;9.50;1.00
21216;DHT22;10765;50.954;5.322;2023-05-13T04:35:37;9.70;99.90
21216;DHT22;10765;50.954;5.322;2023-05-13T04:38:04;10.20;99.90
21216;DHT22;10765;50.954;5.322;2023-05-13T04:40:31;10.40;42.10
21216;DHT22;10765;50.954;5.322;2023-05-13T04:42:58;10.70;1.00
21216;DHT22;10765;50.954;5.322;2023-05-13T04:45:25;10.90;1.00
21216;DHT22;10765;50.954;5.322;2023-05-13T04:47:53;11.10;1.00
21216;DHT22;10765;50.954;5.322;2023-05-13T04:50:20;11.30;99.90
21216;DHT22;10765;50.954;5.322;2023-05-13T04:52:47;11.50;99.90
21216;DHT22;10765;50.954;5.322;2023-05-13T04:55:14;11.70;99.90
21216;DHT22;10765;50.954;5.322;2023-05-13T04:57:41;11.90;1.00
21216;DHT22;10765;50.954;5.322;2023-05-13T05:00:12;12.00;99.90
21216;DHT22;10765;50.954;5.322;2023-05-13T05:02:39;12.30;1.00
21216;DHT22;10765;50.954;5.322;2023-05-13T05:05:08;12.60;99.90
21216;DHT22;10765;50.954;5.322;2023-05-13T05:07:35;12.80;99.90
21216;DHT22;10765;50.954;5.322;2023-05-13T05:10:05;13.10;1.00
21216;DHT22;10765;50.954;5.322;2023-05-13T05:12:32;13.40;1.00
21216;DHT22;10765;50.954;5.322;2023-05-13T05:14:59;13.70;99.90
21216;DHT22;10765;50.954;5.322;2023-05-13T05:17:26;14.00;1.00
21216;DHT22;10765;50.954;5.322;2023-05-13T05:19:57;14.40;99.90
21216;DHT22;10765;50.954;5.322;2023-05-13T05:22:25;14.70;99.90
21216;DHT22;10765;50.954;5.322;2023-05-13T05:24:52;15.00;1.00
21216;DHT22;10765;50.954;5.322;2023-05-13T05:27:19;15.40;1.00
21216;DHT22;10765;50.954;5.322;2023-05-13T05:29:46;15.50;99.90
21216;DHT22;10765;50.954;5.322;2023-05-13T05:32:13;15.80;99.90
21216;DHT22;10765;50.954;5.322;2023-05-13T05:34:40;15.90;99.90
21216;DHT22;10765;50.954;5.322;2023-05-13T05:37:07;16.10;39.00
21216;DHT22;10765;50.954;5.322;2023-05-13T05:39:35;16.30;71.20
21216;DHT22;10765;50.954;5.322;2023-05-13T05:42:03;16.50;15.60
21216;DHT22;10765;50.954;5.322;2023-05-13T05:44:31;16.90;1.00
21216;DHT22;10765;50.954;5.322;2023-05-13T05:46:58;17.20;1.00
21216;DHT22;10765;50.954;5.322;2023-05-13T05:49:26;17.30;1.00
21216;DHT22;10765;50.954;5.322;2023-05-13T05:51:53;17.60;1.00
21216;DHT22;10765;50.954;5.322;2023-05-13T05:54:20;17.90;1.00
21216;DHT22;10765;50.954;5.322;2023-05-13T05:56:49;18.00;1.00
21216;DHT22;10765;50.954;5.322;2023-05-13T05:59:16;18.30;1.00
21216;DHT22;10765;50.954;5.322;2023-05-13T06:01:43;18.40;1.00
21216;DHT22;10765;50.954;5.322;2023-05-13T06:04:10;18.70;1.00
21216;DHT22;10765;50.954;5.322;2023-05-13T06:06:37;18.80;1.00
21216;DHT22;10765;50.954;5.322;2023-05-13T06:09:04;19.10;1.00
21216;DHT22;10765;50.954;5.322;2023-05-13T06:11:33;19.20;1.00
21216;DHT22;10765;50.954;5.322;2023-05-13T06:14:01;19.40;1.00
21216;DHT22;10765;50.954;5.322;2023-05-13T06:16:28;19.40;1.00
21216;DHT22;10765;50.954;5.322;2023-05-13T06:18:56;19.80;1.00
21216;DHT22;10765;50.954;5.322;2023-05-13T06:21:23;19.80;1.00
21216;DHT22;10765;50.954;5.322;2023-05-13T06:23:50;20.00;1.00
21216;DHT22;10765;50.954;5.322;2023-05-13T06:26:17;19.90;1.00
21216;DHT22;10765;50.954;5.322;2023-05-13T06:28:43;19.90;1.00
21216;DHT22;10765;50.954;5.322;2023-05-13T06:31:12;20.20;1.00
21216;DHT22;10765;50.954;5.322;2023-05-13T06:33:38;20.80;1.00
21216;DHT22;10765;50.954;5.322;2023-05-13T06:36:06;21.20;1.00
21216;DHT22;10765;50.954;5.322;2023-05-13T06:38:34;21.20;1.00
21216;DHT22;10765;50.954;5.322;2023-05-13T06:41:00;21.00;1.00
21216;DHT22;10765;50.954;5.322;2023-05-13T06:43:27;21.50;1.00
21216;DHT22;10765;50.954;5.322;2023-05-13T06:45:55;22.40;1.00
21216;DHT22;10765;50.954;5.322;2023-05-13T06:48:24;22.40;1.00
21216;DHT22;10765;50.954;5.322;2023-05-13T06:50:51;21.70;1.00
21216;DHT22;10765;50.954;5.322;2023-05-13T06:53:18;21.50;1.00
21216;DHT22;10765;50.954;5.322;2023-05-13T06:55:45;22.00;1.00
21216;DHT22;10765;50.954;5.322;2023-05-13T06:58:12;21.90;1.00
21216;DHT22;10765;50.954;5.322;2023-05-13T07:00:39;22.00;1.00
21216;DHT22;10765;50.954;5.322;2023-05-13T07:03:06;22.90;1.00
21216;DHT22;10765;50.954;5.322;2023-05-13T07:05:35;23.10;1.00
21216;DHT22;10765;50.954;5.322;2023-05-13T07:08:03;23.10;1.00
21216;DHT22;10765;50.954;5.322;2023-05-13T07:10:31;22.80;1.00
21216;DHT22;10765;50.954;5.322;2023-05-13T07:12:59;23.00;1.00
21216;DHT22;10765;50.954;5.322;2023-05-13T07:15:26;23.50;1.00
21216;DHT22;10765;50.954;5.322;2023-05-13T07:17:53;23.70;1.00
21216;DHT22;10765;50.954;5.322;2023-05-13T07:20:20;23.90;1.00
21216;DHT22;10765;50.954;5.322;2023-05-13T07:22:49;24.20;1.00
21216;DHT22;10765;50.954;5.322;2023-05-13T07:25:16;24.30;1.00
21216;DHT22;10765;50.954;5.322;2023-05-13T07:27:43;25.50;1.00
21216;DHT22;10765;50.954;5.322;2023-05-13T07:30:11;26.30;1.00
21216;DHT22;10765;50.954;5.322;2023-05-13T07:32:38;25.80;1.00
21216;DHT22;10765;50.954;5.322;2023-05-13T07:35:07;25.40;1.00
21216;DHT22;10765;50.954;5.322;2023-05-13T07:37:39;25.50;1.00
21216;DHT22;10765;50.954;5.322;2023-05-13T07:40:08;25.50;1.00
21216;DHT22;10765;50.954;5.322;2023-05-13T07:42:36;25.90;1.00
21216;DHT22;10765;50.954;5.322;2023-05-13T07:45:03;26.00;1.00
21216;DHT22;10765;50.954;5.322;2023-05-13T07:47:30;26.10;1.00
21216;DHT22;10765;50.954;5.322;2023-05-13T07:49:58;25.70;1.00
21216;DHT22;10765;50.954;5.322;2023-05-13T07:52:25;26.60;1.00
21216;DHT22;10765;50.954;5.322;2023-05-13T07:54:52;26.80;1.00
21216;DHT22;10765;50.954;5.322;2023-05-13T07:57:21;27.30;1.00
21216;DHT22;10765;50.954;5.322;2023-05-13T07:59:47;28.30;1.00
21216;DHT22;10765;50.954;5.322;2023-05-13T08:02:14;27.90;1.00
21216;DHT22;10765;50.954;5.322;2023-05-13T08:04:41;28.10;1.00
21216;DHT22;10765;50.954;5.322;2023-05-13T08:07:09;28.40;1.00
21216;DHT22;10765;50.954;5.322;2023-05-13T08:09:36;27.70;1.00
21216;DHT22;10765;50.954;5.322;2023-05-13T08:12:04;27.70;1.00
21216;DHT22;10765;50.954;5.322;2023-05-13T08:14:32;28.10;1.00
21216;DHT22;10765;50.954;5.322;2023-05-13T08:16:59;28.00;1.00
21216;DHT22;10765;50.954;5.322;2023-05-13T08:19:26;28.20;1.00
21216;DHT22;10765;50.954;5.322;2023-05-13T08:21:53;28.90;1.00
21216;DHT22;10765;50.954;5.322;2023-05-13T08:24:20;29.00;1.00
21216;DHT22;10765;50.954;5.322;2023-05-13T08:26:47;28.60;1.00
21216;DHT22;10765;50.954;5.322;2023-05-13T08:29:14;28.40;1.00
21216;DHT22;10765;50.954;5.322;2023-05-13T08:31:42;28.10;1.00
21216;DHT22;10765;50.954;5.322;2023-05-13T08:34:09;28.20;1.00
21216;DHT22;10765;50.954;5.322;2023-05-13T08:36:36;28.30;1.00
21216;DHT22;10765;50.954;5.322;2023-05-13T08:39:03;28.50;1.00
21216;DHT22;10765;50.954;5.322;2023-05-13T08:41:30;29.00;1.00
21216;DHT22;10765;50.954;5.322;2023-05-13T08:43:59;28.90;1.00
21216;DHT22;10765;50.954;5.322;2023-05-13T08:46:26;29.10;1.00
21216;DHT22;10765;50.954;5.322;2023-05-13T08:48:57;29.00;1.00
21216;DHT22;10765;50.954;5.322;2023-05-13T08:51:24;29.50;1.00
21216;DHT22;10765;50.954;5.322;2023-05-13T08:53:52;30.20;1.00
21216;DHT22;10765;50.954;5.322;2023-05-13T08:56:20;30.20;1.00
21216;DHT22;10765;50.954;5.322;2023-05-13T08:58:50;29.70;1.00
21216;DHT22;10765;50.954;5.322;2023-05-13T09:01:17;29.60;1.00
21216;DHT22;10765;50.954;5.322;2023-05-13T09:03:52;30.30;1.00
21216;DHT22;10765;50.954;5.322;2023-05-13T09:06:22;30.70;1.00
21216;DHT22;10765;50.954;5.322;2023-05-13T09:08:49;30.30;1.00
21216;DHT22;10765;50.954;5.322;2023-05-13T09:11:16;30.60;1.00
21216;DHT22;10765;50.954;5.322;2023-05-13T09:13:43;31.30;1.00
21216;DHT22;10765;50.954;5.322;2023-05-13T09:16:10;31.20;1.00
21216;DHT22;10765;50.954;5.322;2023-05-13T09:18:38;31.70;1.00
21216;DHT22;10765;50.954;5.322;2023-05-13T09:21:24;31.70;1.00
21216;DHT22;10765;50.954;5.322;2023-05-13T09:24:00;32.40;1.00
21216;DHT22;10765;50.954;5.322;2023-05-13T09:26:28;33.60;99.90
21216;DHT22;10765;50.954;5.322;2023-05-13T09:29:14;33.40;99.90
21216;DHT22;10765;50.954;5.322;2023-05-13T09:31:42;33.10;1.00
21216;DHT22;10765;50.954;5.322;2023-05-13T09:34:09;33.80;99.90
21216;DHT22;10765;50.954;5.322;2023-05-13T09:36:38;33.30;99.90
21216;DHT22;10765;50.954;5.322;2023-05-13T09:39:06;34.00;99.90
21216;DHT22;10765;50.954;5.322;2023-05-13T09:41:33;33.70;99.90
21216;DHT22;10765;50.954;5.322;2023-05-13T09:44:01;33.40;1.00
21216;DHT22;10765;50.954;5.322;2023-05-13T09:46:30;34.00;1.00
21216;DHT22;10765;50.954;5.322;2023-05-13T09:48:59;32.80;1.00
21216;DHT22;10765;50.954;5.322;2023-05-13T09:51:26;32.80;1.00
21216;DHT22;10765;50.954;5.322;2023-05-13T09:54:02;32.50;1.00
21216;DHT22;10765;50.954;5.322;2023-05-13T09:56:28;31.80;1.00
21216;DHT22;10765;50.954;5.322;2023-05-13T09:58:56;33.40;1.00
21216;DHT22;10765;50.954;5.322;2023-05-13T10:01:24;34.10;1.00
21216;DHT22;10765;50.954;5.322;2023-05-13T10:03:53;32.70;1.00
21216;DHT22;10765;50.954;5.322;2023-05-13T10:06:22;32.20;1.00
21216;DHT22;10765;50.954;5.322;2023-05-13T10:08:50;33.30;1.00
21216;DHT22;10765;50.954;5.322;2023-05-13T10:11:19;33.40;1.00
21216;DHT22;10765;50.954;5.322;2023-05-13T10:13:49;33.80;1.00
21216;DHT22;10765;50.954;5.322;2023-05-13T10:16:20;34.30;1.00
21216;DHT22;10765;50.954;5.322;2023-05-13T10:18:48;34.60;1.00
21216;DHT22;10765;50.954;5.322;2023-05-13T10:21:16;34.50;1.00
21216;DHT22;10765;50.954;5.322;2023-05-13T10:23:44;34.50;1.00
21216;DHT22;10765;50.954;5.322;2023-05-13T10:26:12;35.40;1.00
21216;DHT22;10765;50.954;5.322;2023-05-13T10:28:42;34.40;1.00
21216;DHT22;10765;50.954;5.322;2023-05-13T10:31:09;34.30;1.00
21216;DHT22;10765;50.954;5.322;2023-05-13T10:33:35;33.50;1.00
21216;DHT22;10765;50.954;5.322;2023-05-13T10:36:14;34.20;1.00
21216;DHT22;10765;50.954;5.322;2023-05-13T10:38:52;33.60;1.00
21216;DHT22;10765;50.954;5.322;2023-05-13T10:41:38;34.70;1.00
21216;DHT22;10765;50.954;5.322;2023-05-13T10:44:21;35.30;1.00
21216;DHT22;10765;50.954;5.322;2023-05-13T10:46:48;36.30;1.00
21216;DHT22;10765;50.954;5.322;2023-05-13T10:49:15;37.20;1.00
21216;DHT22;10765;50.954;5.322;2023-05-13T10:51:44;36.70;1.00
21216;DHT22;10765;50.954;5.322;2023-05-13T10:54:18;36.50;1.00
21216;DHT22;10765;50.954;5.322;2023-05-13T10:56:46;34.60;1.00
21216;DHT22;10765;50.954;5.322;2023-05-13T10:59:23;35.10;1.00
21216;DHT22;10765;50.954;5.322;2023-05-13T11:01:49;35.90;1.00
21216;DHT22;10765;50.954;5.322;2023-05-13T11:04:18;35.90;1.00
21216;DHT22;10765;50.954;5.322;2023-05-13T11:06:47;35.30;1.00
21216;DHT22;10765;50.954;5.322;2023-05-13T11:09:28;35.10;1.00
21216;DHT22;10765;50.954;5.322;2023-05-13T11:11:56;34.60;1.00
21216;DHT22;10765;50.954;5.322;2023-05-13T11:14:26;33.70;1.00
21216;DHT22;10765;50.954;5.322;2023-05-13T11:16:56;33.30;1.00
21216;DHT22;10765;50.954;5.322;2023-05-13T11:19:35;35.50;1.00
21216;DHT22;10765;50.954;5.322;2023-05-13T11:22:07;35.20;1.00
21216;DHT22;10765;50.954;5.322;2023-05-13T11:24:34;35.30;1.00
21216;DHT22;10765;50.954;5.322;2023-05-13T11:27:12;34.40;1.00
21216;DHT22;10765;50.954;5.322;2023-05-13T11:29:48;34.70;1.00
21216;DHT22;10765;50.954;5.322;2023-05-13T11:32:53;35.00;1.00
21216;DHT22;10765;50.954;5.322;2023-05-13T11:35:21;34.10;1.00
21216;DHT22;10765;50.954;5.322;2023-05-13T11:37:48;35.10;1.00
21216;DHT22;10765;50.954;5.322;2023-05-13T11:40:21;35.20;1.00
21216;DHT22;10765;50.954;5.322;2023-05-13T11:42:48;35.10;1.00
21216;DHT22;10765;50.954;5.322;2023-05-13T11:45:17;36.20;1.00
21216;DHT22;10765;50.954;5.322;2023-05-13T11:47:45;35.10;1.00
21216;DHT22;10765;50.954;5.322;2023-05-13T11:50:18;34.70;1.00
21216;DHT22;10765;50.954;5.322;2023-05-13T11:52:50;34.40;1.00
21216;DHT22;10765;50.954;5.322;2023-05-13T11:55:24;35.40;1.00
21216;DHT22;10765;50.954;5.322;2023-05-13T11:57:51;34.00;1.00
21216;DHT22;10765;50.954;5.322;2023-05-13T12:00:24;34.30;1.00
21216;DHT22;10765;50.954;5.322;2023-05-13T12:02:52;36.30;1.00
21216;DHT22;10765;50.954;5.322;2023-05-13T12:05:19;34.00;1.00
21216;DHT22;10765;50.954;5.322;2023-05-13T12:07:46;34.60;1.00
21216;DHT22;10765;50.954;5.322;2023-05-13T12:10:13;35.00;1.00
21216;DHT22;10765;50.954;5.322;2023-05-13T12:12:42;35.60;1.00
21216;DHT22;10765;50.954;5.322;2023-05-13T12:15:13;34.70;1.00
21216;DHT22;10765;50.954;5.322;2023-05-13T12:17:41;36.00;1.00
21216;DHT22;10765;50.954;5.322;2023-05-13T12:20:10;36.00;1.00
21216;DHT22;10765;50.954;5.322;2023-05-13T12:22:49;35.80;1.00
21216;DHT22;10765;50.954;5.322;2023-05-13T12:25:36;35.50;1.00
21216;DHT22;10765;50.954;5.322;2023-05-13T12:28:07;37.40;1.00
21216;DHT22;10765;50.954;5.322;2023-05-13T12:30:34;35.20;1.00
21216;DHT22;10765;50.954;5.322;2023-05-13T12:33:03;35.60;1.00
21216;DHT22;10765;50.954;5.322;2023-05-13T12:35:30;35.80;1.00
21216;DHT22;10765;50.954;5.322;2023-05-13T12:37:59;36.00;1.00
21216;DHT22;10765;50.954;5.322;2023-05-13T12:40:26;37.10;1.00
21216;DHT22;10765;50.954;5.322;2023-05-13T12:42:56;36.90;1.00
21216;DHT22;10765;50.954;5.322;2023-05-13T12:45:26;37.80;1.00
21216;DHT22;10765;50.954;5.322;2023-05-13T12:47:54;37.30;1.00
21216;DHT22;10765;50.954;5.322;2023-05-13T12:50:23;34.60;1.00
21216;DHT22;10765;50.954;5.322;2023-05-13T12:52:51;31.60;1.00
21216;DHT22;10765;50.954;5.322;2023-05-13T12:55:18;29.40;1.00
21216;DHT22;10765;50.954;5.322;2023-05-13T12:57:53;27.70;1.00
21216;DHT22;10765;50.954;5.322;2023-05-13T13:00:22;31.70;1.00
21216;DHT22;10765;50.954;5.322;2023-05-13T13:02:49;34.00;1.00
21216;DHT22;10765;50.954;5.322;2023-05-13T13:05:17;35.60;1.00
21216;DHT22;10765;50.954;5.322;2023-05-13T13:07:46;35.00;1.00
21216;DHT22;10765;50.954;5.322;2023-05-13T13:10:13;35.10;1.00
21216;DHT22;10765;50.954;5.322;2023-05-13T13:12:40;35.00;1.00
21216;DHT22;10765;50.954;5.322;2023-05-13T13:15:08;33.80;1.00
21216;DHT22;10765;50.954;5.322;2023-05-13T13:17:36;33.50;1.00
21216;DHT22;10765;50.954;5.322;2023-05-13T13:20:03;32.10;1.00
21216;DHT22;10765;50.954;5.322;2023-05-13T13:22:31;29.80;1.00
21216;DHT22;10765;50.954;5.322;2023-05-13T13:25:00;26.50;1.00
21216;DHT22;10765;50.954;5.322;2023-05-13T13:27:27;27.20;1.00
21216;DHT22;10765;50.954;5.322;2023-05-13T13:29:54;30.10;1.00
21216;DHT22;10765;50.954;5.322;2023-05-13T13:32:21;31.50;1.00
21216;DHT22;10765;50.954;5.322;2023-05-13T13:34:48;32.50;1.00
21216;DHT22;10765;50.954;5.322;2023-05-13T13:37:14;33.00;1.00
21216;DHT22;10765;50.954;5.322;2023-05-13T13:39:41;32.40;1.00
21216;DHT22;10765;50.954;5.322;2023-05-13T13:42:10;29.60;1.00
21216;DHT22;10765;50.954;5.322;2023-05-13T13:44:36;27.70;1.00
21216;DHT22;10765;50.954;5.322;2023-05-13T13:47:04;27.10;1.00
21216;DHT22;10765;50.954;5.322;2023-05-13T13:49:31;27.10;1.00
21216;DHT22;10765;50.954;5.322;2023-05-13T13:51:57;26.70;1.00
21216;DHT22;10765;50.954;5.322;2023-05-13T13:54:24;26.80;1.00
21216;DHT22;10765;50.954;5.322;2023-05-13T13:56:51;26.40;1.00
21216;DHT22;10765;50.954;5.322;2023-05-13T13:59:19;26.30;1.00
21216;DHT22;10765;50.954;5.322;2023-05-13T14:01:46;26.40;1.00
21216;DHT22;10765;50.954;5.322;2023-05-13T14:04:14;26.30;1.00
21216;DHT22;10765;50.954;5.322;2023-05-13T14:06:43;26.30;1.00
21216;DHT22;10765;50.954;5.322;2023-05-13T14:09:10;25.90;1.00
21216;DHT22;10765;50.954;5.322;2023-05-13T14:11:37;25.60;1.00
21216;DHT22;10765;50.954;5.322;2023-05-13T14:14:03;25.60;1.00
21216;DHT22;10765;50.954;5.322;2023-05-13T14:16:33;25.60;1.00
21216;DHT22;10765;50.954;5.322;2023-05-13T14:19:00;25.80;1.00
21216;DHT22;10765;50.954;5.322;2023-05-13T14:21:26;26.00;1.00
21216;DHT22;10765;50.954;5.322;2023-05-13T14:23:53;26.70;1.00
21216;DHT22;10765;50.954;5.322;2023-05-13T14:26:20;26.70;1.00
21216;DHT22;10765;50.954;5.322;2023-05-13T14:28:47;26.00;1.00
21216;DHT22;10765;50.954;5.322;2023-05-13T14:31:14;25.50;1.00
21216;DHT22;10765;50.954;5.322;2023-05-13T14:33:42;25.80;1.00
21216;DHT22;10765;50.954;5.322;2023-05-13T14:36:09;26.30;1.00
21216;DHT22;10765;50.954;5.322;2023-05-13T14:38:40;25.60;1.00
21216;DHT22;10765;50.954;5.322;2023-05-13T14:41:07;25.00;1.00
21216;DHT22;10765;50.954;5.322;2023-05-13T14:43:34;24.40;1.00
21216;DHT22;10765;50.954;5.322;2023-05-13T14:46:01;24.20;1.00
21216;DHT22;10765;50.954;5.322;2023-05-13T14:48:28;24.50;1.00
21216;DHT22;10765;50.954;5.322;2023-05-13T14:50:56;24.80;1.00
21216;DHT22;10765;50.954;5.322;2023-05-13T14:53:23;25.20;1.00
21216;DHT22;10765;50.954;5.322;2023-05-13T14:55:50;25.80;1.00
21216;DHT22;10765;50.954;5.322;2023-05-13T14:58:17;25.90;1.00
21216;DHT22;10765;50.954;5.322;2023-05-13T15:00:43;25.20;1.00
21216;DHT22;10765;50.954;5.322;2023-05-13T15:03:10;24.70;1.00
21216;DHT22;10765;50.954;5.322;2023-05-13T15:05:37;24.70;1.00
21216;DHT22;10765;50.954;5.322;2023-05-13T15:08:06;24.30;1.00
21216;DHT22;10765;50.954;5.322;2023-05-13T15:10:33;23.40;1.00
21216;DHT22;10765;50.954;5.322;2023-05-13T15:13:00;22.70;1.00
21216;DHT22;10765;50.954;5.322;2023-05-13T15:15:27;22.50;1.00
21216;DHT22;10765;50.954;5.322;2023-05-13T15:17:54;22.00;1.00
21216;DHT22;10765;50.954;5.322;2023-05-13T15:20:21;21.50;1.00
21216;DHT22;10765;50.954;5.322;2023-05-13T15:22:48;21.20;1.00
21216;DHT22;10765;50.954;5.322;2023-05-13T15:25:16;21.00;1.00
21216;DHT22;10765;50.954;5.322;2023-05-13T15:27:43;20.80;1.00
21216;DHT22;10765;50.954;5.322;2023-05-13T15:30:10;20.80;1.00
21216;DHT22;10765;50.954;5.322;2023-05-13T15:32:37;20.90;1.00
21216;DHT22;10765;50.954;5.322;2023-05-13T15:35:05;21.10;1.00
21216;DHT22;10765;50.954;5.322;2023-05-13T15:37:32;21.00;1.00
21216;DHT22;10765;50.954;5.322;2023-05-13T15:39:59;21.10;1.00
21216;DHT22;10765;50.954;5.322;2023-05-13T15:42:27;21.10;1.00
21216;DHT22;10765;50.954;5.322;2023-05-13T15:44:54;21.00;1.00
21216;DHT22;10765;50.954;5.322;2023-05-13T15:47:21;21.00;1.00
21216;DHT22;10765;50.954;5.322;2023-05-13T15:49:48;21.10;1.00
21216;DHT22;10765;50.954;5.322;2023-05-13T15:52:17;20.90;1.00